AFR4776 GVAC-GLRB
Flight info
| Callsign | AFR4776 |
|---|---|
| Flight time | 2h 23m |
| Altitude | 35000 |
| Route | DISDA1A SNT UW31 MOGSA UA602 TURED UG853 DEMAR TERPU1A |
| Aircraft | A320/M-SDE3FGHIRWY/LB1 |
Departure
| Time | 2026-04-27 12:20 |
|---|---|
| Airport | Amílcar Cabral International Airport (GVAC) |
Arrival
| Time | 2026-04-27 14:44 |
|---|---|
| Airport | Roberts International Airport (GLRB) |
| Time | Latitude | Longitude | Altitude | Speed | Heading |
|---|---|---|---|---|---|
| 2026-04-27 12:06 | 16.73300 | -22.94490 | 181 ft | 0 kts | 90° |
| 2026-04-27 12:15 | 16.73300 | -22.94501 | 181 ft | 3 kts | 90° |
| 2026-04-27 12:16 | 16.73300 | -22.94519 | 181 ft | 2 kts | 90° |
| 2026-04-27 12:16 | 16.73300 | -22.94538 | 181 ft | 3 kts | 90° |
| 2026-04-27 12:16 | 16.73305 | -22.94554 | 181 ft | 2 kts | 157° |
| 2026-04-27 12:16 | 16.73316 | -22.94557 | 181 ft | 0 kts | 206° |
| 2026-04-27 12:17 | 16.73313 | -22.94559 | 181 ft | 3 kts | 211° |
| 2026-04-27 12:17 | 16.73282 | -22.94579 | 181 ft | 11 kts | 210° |
| 2026-04-27 12:17 | 16.73110 | -22.94599 | 182 ft | 36 kts | 185° |
| 2026-04-27 12:17 | 16.72958 | -22.94711 | 182 ft | 12 kts | 181° |
| 2026-04-27 12:18 | 16.72886 | -22.94691 | 182 ft | 12 kts | 176° |
| 2026-04-27 12:18 | 16.72779 | -22.94683 | 182 ft | 16 kts | 181° |
| 2026-04-27 12:18 | 16.72666 | -22.94686 | 182 ft | 19 kts | 181° |
| 2026-04-27 12:18 | 16.72502 | -22.94688 | 182 ft | 27 kts | 180° |
| 2026-04-27 12:19 | 16.72407 | -22.94794 | 182 ft | 23 kts | 268° |
| 2026-04-27 12:19 | 16.72470 | -22.94888 | 182 ft | 16 kts | 8° |
| 2026-04-27 12:19 | 16.72587 | -22.94883 | 182 ft | 22 kts | 357° |
| 2026-04-27 12:19 | 16.73001 | -22.94883 | 184 ft | 99 kts | 358° |
| 2026-04-27 12:20 | 16.73933 | -22.94897 | 183 ft | 162 kts | 1° |
| 2026-04-27 12:20 | 16.75129 | -22.94870 | 681 ft | 177 kts | 5° |
| 2026-04-27 12:20 | 16.76423 | -22.94847 | 1110 ft | 199 kts | 1° |
| 2026-04-27 12:20 | 16.77888 | -22.94863 | 1479 ft | 222 kts | 1° |
| 2026-04-27 12:21 | 16.79510 | -22.94890 | 1929 ft | 242 kts | 1° |
| 2026-04-27 12:21 | 16.81210 | -22.94880 | 2733 ft | 245 kts | 8° |
| 2026-04-27 12:21 | 16.82810 | -22.94303 | 3510 ft | 249 kts | 33° |
| 2026-04-27 12:21 | 16.84018 | -22.92976 | 4222 ft | 260 kts | 58° |
| 2026-04-27 12:22 | 16.84498 | -22.91120 | 4862 ft | 275 kts | 89° |
| 2026-04-27 12:22 | 16.83989 | -22.89170 | 5425 ft | 287 kts | 123° |
| 2026-04-27 12:22 | 16.82548 | -22.87750 | 6021 ft | 289 kts | 157° |
| 2026-04-27 12:22 | 16.80677 | -22.86989 | 6706 ft | 290 kts | 165° |
| 2026-04-27 12:23 | 16.78769 | -22.86282 | 7426 ft | 291 kts | 165° |
| 2026-04-27 12:23 | 16.76859 | -22.85573 | 8179 ft | 292 kts | 165° |
| 2026-04-27 12:23 | 16.74944 | -22.84857 | 8934 ft | 293 kts | 164° |
| 2026-04-27 12:23 | 16.73159 | -22.83767 | 9648 ft | 305 kts | 142° |
| 2026-04-27 12:24 | 16.71758 | -22.82106 | 10299 ft | 314 kts | 133° |
| 2026-04-27 12:24 | 16.70336 | -22.80264 | 10451 ft | 337 kts | 132° |
| 2026-04-27 12:24 | 16.68827 | -22.78289 | 10571 ft | 359 kts | 132° |
| 2026-04-27 12:24 | 16.67233 | -22.76193 | 10697 ft | 379 kts | 131° |
| 2026-04-27 12:25 | 16.65558 | -22.73987 | 10914 ft | 394 kts | 131° |
| 2026-04-27 12:25 | 16.63848 | -22.71736 | 11397 ft | 399 kts | 131° |
| 2026-04-27 12:25 | 16.62116 | -22.69458 | 11957 ft | 402 kts | 131° |
| 2026-04-27 12:25 | 16.60365 | -22.67161 | 12513 ft | 405 kts | 131° |
| 2026-04-27 12:26 | 16.58624 | -22.64882 | 13055 ft | 408 kts | 130° |
| 2026-04-27 12:26 | 16.56843 | -22.62554 | 13601 ft | 411 kts | 130° |
| 2026-04-27 12:26 | 16.55050 | -22.60216 | 14088 ft | 414 kts | 130° |
| 2026-04-27 12:26 | 16.53243 | -22.57860 | 14534 ft | 417 kts | 130° |
| 2026-04-27 12:27 | 16.51427 | -22.55492 | 14971 ft | 420 kts | 130° |
| 2026-04-27 12:27 | 16.49599 | -22.53108 | 15392 ft | 423 kts | 130° |
| 2026-04-27 12:27 | 16.47760 | -22.50708 | 15809 ft | 425 kts | 130° |
| 2026-04-27 12:27 | 16.45900 | -22.48280 | 16220 ft | 428 kts | 130° |
| 2026-04-27 12:28 | 16.44060 | -22.45879 | 16618 ft | 430 kts | 130° |
| 2026-04-27 12:28 | 16.42181 | -22.43433 | 17014 ft | 433 kts | 130° |
| 2026-04-27 12:28 | 16.40293 | -22.40979 | 17416 ft | 435 kts | 130° |
| 2026-04-27 12:28 | 16.38389 | -22.38505 | 17779 ft | 438 kts | 130° |
| 2026-04-27 12:29 | 16.36477 | -22.36021 | 18152 ft | 440 kts | 130° |
| 2026-04-27 12:29 | 16.34558 | -22.33526 | 18497 ft | 443 kts | 130° |
| 2026-04-27 12:29 | 16.32627 | -22.31014 | 18790 ft | 446 kts | 130° |
| 2026-04-27 12:29 | 16.30680 | -22.28486 | 19099 ft | 448 kts | 130° |
| 2026-04-27 12:30 | 16.28727 | -22.25947 | 19422 ft | 450 kts | 130° |
| 2026-04-27 12:30 | 16.26759 | -22.23388 | 19738 ft | 452 kts | 130° |
| 2026-04-27 12:30 | 16.24785 | -22.20824 | 20053 ft | 454 kts | 130° |
| 2026-04-27 12:30 | 16.22800 | -22.18251 | 20363 ft | 456 kts | 130° |
| 2026-04-27 12:31 | 16.20808 | -22.15668 | 20663 ft | 459 kts | 130° |
| 2026-04-27 12:31 | 16.18810 | -22.13076 | 20970 ft | 461 kts | 130° |
| 2026-04-27 12:31 | 16.16799 | -22.10467 | 21266 ft | 463 kts | 130° |
| 2026-04-27 12:31 | 16.14782 | -22.07851 | 21560 ft | 465 kts | 130° |
| 2026-04-27 12:32 | 16.12781 | -22.05259 | 21851 ft | 467 kts | 130° |
| 2026-04-27 12:32 | 16.10743 | -22.02620 | 22130 ft | 469 kts | 130° |
| 2026-04-27 12:32 | 16.08695 | -21.99974 | 22406 ft | 471 kts | 130° |
| 2026-04-27 12:32 | 16.06636 | -21.97314 | 22684 ft | 473 kts | 130° |
| 2026-04-27 12:33 | 16.04567 | -21.94639 | 22952 ft | 475 kts | 130° |
| 2026-04-27 12:33 | 16.02490 | -21.91951 | 23217 ft | 477 kts | 130° |
| 2026-04-27 12:33 | 16.00408 | -21.89255 | 23476 ft | 479 kts | 130° |
| 2026-04-27 12:33 | 15.98316 | -21.86551 | 23718 ft | 481 kts | 130° |
| 2026-04-27 12:34 | 15.96208 | -21.83831 | 23934 ft | 483 kts | 130° |
| 2026-04-27 12:34 | 15.94119 | -21.81139 | 24122 ft | 485 kts | 130° |
| 2026-04-27 12:34 | 15.91992 | -21.78399 | 24321 ft | 487 kts | 130° |
| 2026-04-27 12:34 | 15.89858 | -21.75649 | 24514 ft | 489 kts | 130° |
| 2026-04-27 12:35 | 15.87717 | -21.72885 | 24703 ft | 491 kts | 130° |
| 2026-04-27 12:35 | 15.85569 | -21.70112 | 24891 ft | 493 kts | 130° |
| 2026-04-27 12:35 | 15.83412 | -21.67335 | 25074 ft | 495 kts | 130° |
| 2026-04-27 12:35 | 15.81244 | -21.64544 | 25251 ft | 497 kts | 130° |
| 2026-04-27 12:36 | 15.79069 | -21.61742 | 25428 ft | 499 kts | 130° |
| 2026-04-27 12:36 | 15.76912 | -21.58960 | 25608 ft | 501 kts | 130° |
| 2026-04-27 12:36 | 15.74692 | -21.56103 | 25797 ft | 503 kts | 130° |
| 2026-04-27 12:36 | 15.72491 | -21.53272 | 25968 ft | 505 kts | 130° |
| 2026-04-27 12:37 | 15.70277 | -21.50430 | 26154 ft | 507 kts | 130° |
| 2026-04-27 12:37 | 15.68057 | -21.47581 | 26321 ft | 509 kts | 130° |
| 2026-04-27 12:37 | 15.65854 | -21.44753 | 26497 ft | 511 kts | 130° |
| 2026-04-27 12:37 | 15.63621 | -21.41886 | 26705 ft | 512 kts | 130° |
| 2026-04-27 12:38 | 15.61388 | -21.39014 | 26954 ft | 512 kts | 130° |
| 2026-04-27 12:38 | 15.59148 | -21.36137 | 27190 ft | 512 kts | 130° |
| 2026-04-27 12:38 | 15.56911 | -21.33267 | 27442 ft | 512 kts | 130° |
| 2026-04-27 12:38 | 15.54666 | -21.30385 | 27688 ft | 512 kts | 130° |
| 2026-04-27 12:39 | 15.52425 | -21.27508 | 27935 ft | 512 kts | 130° |
| 2026-04-27 12:39 | 15.50180 | -21.24633 | 28184 ft | 513 kts | 130° |
| 2026-04-27 12:39 | 15.47957 | -21.21785 | 28428 ft | 513 kts | 130° |
| 2026-04-27 12:39 | 15.45708 | -21.18903 | 28672 ft | 513 kts | 130° |
| 2026-04-27 12:40 | 15.43456 | -21.16025 | 28924 ft | 514 kts | 130° |
| 2026-04-27 12:40 | 15.41199 | -21.13145 | 29175 ft | 514 kts | 130° |
| 2026-04-27 12:40 | 15.38943 | -21.10263 | 29420 ft | 515 kts | 130° |
| 2026-04-27 12:40 | 15.36684 | -21.07381 | 29667 ft | 515 kts | 130° |
| 2026-04-27 12:41 | 15.34421 | -21.04495 | 29925 ft | 515 kts | 129° |
| 2026-04-27 12:41 | 15.32193 | -21.01647 | 30165 ft | 516 kts | 129° |
| 2026-04-27 12:41 | 15.29933 | -20.98752 | 30391 ft | 515 kts | 129° |
| 2026-04-27 12:41 | 15.27681 | -20.95869 | 30667 ft | 514 kts | 130° |
| 2026-04-27 12:42 | 15.25436 | -20.93002 | 30941 ft | 512 kts | 130° |
| 2026-04-27 12:42 | 15.23188 | -20.90143 | 31204 ft | 511 kts | 130° |
| 2026-04-27 12:42 | 15.20945 | -20.87289 | 31473 ft | 510 kts | 130° |
| 2026-04-27 12:42 | 15.18708 | -20.84440 | 31738 ft | 508 kts | 130° |
| 2026-04-27 12:43 | 15.16474 | -20.81593 | 32014 ft | 507 kts | 130° |
| 2026-04-27 12:43 | 15.14248 | -20.78755 | 32286 ft | 506 kts | 130° |
| 2026-04-27 12:43 | 15.12033 | -20.75931 | 32549 ft | 505 kts | 131° |
| 2026-04-27 12:43 | 15.09821 | -20.73106 | 32808 ft | 504 kts | 131° |
| 2026-04-27 12:44 | 15.07639 | -20.70328 | 33075 ft | 503 kts | 131° |
| 2026-04-27 12:44 | 15.05429 | -20.67520 | 33341 ft | 502 kts | 131° |
| 2026-04-27 12:44 | 15.03225 | -20.64722 | 33614 ft | 501 kts | 131° |
| 2026-04-27 12:44 | 15.01023 | -20.61925 | 33886 ft | 500 kts | 131° |
| 2026-04-27 12:45 | 14.98835 | -20.59143 | 34193 ft | 497 kts | 131° |
| 2026-04-27 12:45 | 14.96657 | -20.56379 | 34452 ft | 496 kts | 131° |
| 2026-04-27 12:45 | 14.94478 | -20.53620 | 34685 ft | 495 kts | 131° |
| 2026-04-27 12:45 | 14.92301 | -20.50863 | 34902 ft | 494 kts | 131° |
| 2026-04-27 12:46 | 14.90120 | -20.48102 | 35017 ft | 494 kts | 131° |
| 2026-04-27 12:46 | 14.85752 | -20.42567 | 35052 ft | 498 kts | 131° |
| 2026-04-27 12:47 | 14.81380 | -20.37017 | 35054 ft | 498 kts | 131° |
| 2026-04-27 12:47 | 14.77743 | -20.32406 | 35051 ft | 498 kts | 131° |
| 2026-04-27 12:48 | 14.73355 | -20.26857 | 35052 ft | 498 kts | 131° |
| 2026-04-27 12:48 | 14.68966 | -20.21320 | 35045 ft | 497 kts | 131° |
| 2026-04-27 12:49 | 14.64668 | -20.15739 | 35052 ft | 497 kts | 129° |
| 2026-04-27 12:49 | 14.60460 | -20.10076 | 35057 ft | 497 kts | 129° |
| 2026-04-27 12:50 | 14.56242 | -20.04412 | 35057 ft | 497 kts | 129° |
| 2026-04-27 12:50 | 14.52002 | -19.98776 | 35057 ft | 497 kts | 130° |
| 2026-04-27 12:51 | 14.47751 | -19.93155 | 35054 ft | 497 kts | 130° |
| 2026-04-27 12:51 | 14.43488 | -19.87517 | 35053 ft | 497 kts | 130° |
| 2026-04-27 12:52 | 14.39261 | -19.81927 | 35051 ft | 496 kts | 130° |
| 2026-04-27 12:52 | 14.35018 | -19.76329 | 35060 ft | 495 kts | 130° |
| 2026-04-27 12:53 | 14.28664 | -19.67934 | 35056 ft | 494 kts | 130° |
| 2026-04-27 12:53 | 14.24436 | -19.62351 | 35052 ft | 494 kts | 130° |
| 2026-04-27 12:54 | 14.20210 | -19.56774 | 35051 ft | 494 kts | 130° |
| 2026-04-27 12:54 | 14.15980 | -19.51196 | 35047 ft | 494 kts | 130° |
| 2026-04-27 12:55 | 14.11748 | -19.45618 | 35049 ft | 494 kts | 130° |
| 2026-04-27 12:55 | 14.07517 | -19.40052 | 35042 ft | 493 kts | 130° |
| 2026-04-27 12:56 | 14.03308 | -19.34521 | 35042 ft | 493 kts | 130° |
| 2026-04-27 12:56 | 13.99085 | -19.28963 | 35045 ft | 493 kts | 130° |
| 2026-04-27 12:57 | 13.94858 | -19.23407 | 35045 ft | 493 kts | 130° |
| 2026-04-27 12:57 | 13.90627 | -19.17849 | 35044 ft | 493 kts | 130° |
| 2026-04-27 12:58 | 13.86407 | -19.12302 | 35039 ft | 492 kts | 130° |
| 2026-04-27 12:58 | 13.82176 | -19.06749 | 35042 ft | 493 kts | 130° |
| 2026-04-27 12:59 | 13.77950 | -19.01204 | 35040 ft | 493 kts | 130° |
| 2026-04-27 12:59 | 13.73711 | -18.95661 | 35039 ft | 493 kts | 130° |
| 2026-04-27 13:00 | 13.69465 | -18.90114 | 35035 ft | 493 kts | 130° |
| 2026-04-27 13:00 | 13.65228 | -18.84570 | 35035 ft | 493 kts | 130° |
| 2026-04-27 13:01 | 13.61016 | -18.79056 | 35035 ft | 493 kts | 130° |
| 2026-04-27 13:01 | 13.56782 | -18.73525 | 35035 ft | 493 kts | 130° |
| 2026-04-27 13:02 | 13.52536 | -18.67992 | 35033 ft | 493 kts | 130° |
| 2026-04-27 13:02 | 13.48295 | -18.62465 | 35027 ft | 492 kts | 130° |
| 2026-04-27 13:03 | 13.44060 | -18.56952 | 35036 ft | 491 kts | 130° |
| 2026-04-27 13:03 | 13.39835 | -18.51431 | 35039 ft | 491 kts | 130° |
| 2026-04-27 13:04 | 13.35613 | -18.45933 | 35045 ft | 490 kts | 130° |
| 2026-04-27 13:04 | 13.31389 | -18.40434 | 35040 ft | 490 kts | 130° |
| 2026-04-27 13:05 | 13.27140 | -18.34953 | 35035 ft | 490 kts | 131° |
| 2026-04-27 13:05 | 13.22894 | -18.29484 | 35034 ft | 490 kts | 130° |
| 2026-04-27 13:06 | 13.18648 | -18.24011 | 35036 ft | 490 kts | 131° |
| 2026-04-27 13:06 | 13.14403 | -18.18539 | 35033 ft | 490 kts | 130° |
| 2026-04-27 13:07 | 13.10158 | -18.13069 | 35035 ft | 490 kts | 131° |
| 2026-04-27 13:07 | 13.05938 | -18.07639 | 35037 ft | 489 kts | 131° |
| 2026-04-27 13:08 | 13.01690 | -18.02172 | 35034 ft | 489 kts | 131° |
| 2026-04-27 13:08 | 12.96965 | -17.97208 | 35033 ft | 485 kts | 141° |
| 2026-04-27 13:09 | 12.91918 | -17.92593 | 35033 ft | 486 kts | 141° |
| 2026-04-27 13:09 | 12.86911 | -17.88000 | 35026 ft | 486 kts | 141° |
| 2026-04-27 13:10 | 12.81868 | -17.83369 | 35025 ft | 485 kts | 141° |
| 2026-04-27 13:10 | 12.76834 | -17.78758 | 35025 ft | 485 kts | 141° |
| 2026-04-27 13:11 | 12.71827 | -17.74180 | 35028 ft | 485 kts | 141° |
| 2026-04-27 13:11 | 12.66793 | -17.69574 | 35025 ft | 485 kts | 141° |
| 2026-04-27 13:12 | 12.61747 | -17.64952 | 35021 ft | 485 kts | 141° |
| 2026-04-27 13:12 | 12.56718 | -17.60351 | 35016 ft | 485 kts | 141° |
| 2026-04-27 13:13 | 12.51716 | -17.55781 | 35012 ft | 485 kts | 141° |
| 2026-04-27 13:13 | 12.46681 | -17.51183 | 35015 ft | 485 kts | 141° |
| 2026-04-27 13:14 | 12.41646 | -17.46591 | 35013 ft | 484 kts | 141° |
| 2026-04-27 13:14 | 12.36615 | -17.41999 | 35012 ft | 484 kts | 141° |
| 2026-04-27 13:15 | 12.31585 | -17.37404 | 35014 ft | 484 kts | 141° |
| 2026-04-27 13:15 | 12.26547 | -17.32817 | 35015 ft | 485 kts | 141° |
| 2026-04-27 13:16 | 12.21499 | -17.28229 | 35016 ft | 485 kts | 141° |
| 2026-04-27 13:16 | 12.16489 | -17.23672 | 35010 ft | 485 kts | 141° |
| 2026-04-27 13:17 | 12.11437 | -17.19080 | 35014 ft | 485 kts | 141° |
| 2026-04-27 13:17 | 12.06391 | -17.14489 | 35012 ft | 485 kts | 141° |
| 2026-04-27 13:18 | 12.01348 | -17.09906 | 35007 ft | 485 kts | 141° |
| 2026-04-27 13:18 | 11.96328 | -17.05340 | 35008 ft | 485 kts | 141° |
| 2026-04-27 13:19 | 11.91275 | -17.00754 | 35006 ft | 486 kts | 141° |
| 2026-04-27 13:19 | 11.86222 | -16.96173 | 35000 ft | 486 kts | 140° |
| 2026-04-27 13:20 | 11.81157 | -16.91578 | 35009 ft | 486 kts | 140° |
| 2026-04-27 13:20 | 11.76108 | -16.87005 | 35009 ft | 486 kts | 140° |
| 2026-04-27 13:21 | 11.71087 | -16.82448 | 35013 ft | 486 kts | 140° |
| 2026-04-27 13:21 | 11.66035 | -16.77871 | 35010 ft | 485 kts | 140° |
| 2026-04-27 13:22 | 11.60981 | -16.73296 | 35009 ft | 485 kts | 140° |
| 2026-04-27 13:22 | 11.55929 | -16.68735 | 35011 ft | 485 kts | 141° |
| 2026-04-27 13:23 | 11.50881 | -16.64172 | 35009 ft | 484 kts | 140° |
| 2026-04-27 13:23 | 11.45840 | -16.59611 | 35006 ft | 484 kts | 140° |
| 2026-04-27 13:24 | 11.40807 | -16.55064 | 35005 ft | 483 kts | 140° |
| 2026-04-27 13:24 | 11.35769 | -16.50511 | 35005 ft | 483 kts | 140° |
| 2026-04-27 13:25 | 11.30762 | -16.45997 | 35005 ft | 484 kts | 140° |
| 2026-04-27 13:25 | 11.25715 | -16.41452 | 35005 ft | 484 kts | 140° |
| 2026-04-27 13:26 | 11.20678 | -16.36914 | 35000 ft | 483 kts | 140° |
| 2026-04-27 13:26 | 11.15646 | -16.32377 | 35002 ft | 482 kts | 140° |
| 2026-04-27 13:27 | 11.10615 | -16.27839 | 35004 ft | 482 kts | 140° |
| 2026-04-27 13:27 | 11.05589 | -16.23320 | 35002 ft | 481 kts | 140° |
| 2026-04-27 13:28 | 11.00586 | -16.18820 | 34992 ft | 481 kts | 140° |
| 2026-04-27 13:28 | 10.95570 | -16.14306 | 34989 ft | 481 kts | 140° |
| 2026-04-27 13:29 | 10.90559 | -16.09799 | 34990 ft | 481 kts | 140° |
| 2026-04-27 13:29 | 10.85545 | -16.05295 | 34988 ft | 480 kts | 140° |
| 2026-04-27 13:30 | 10.80571 | -16.00835 | 34990 ft | 479 kts | 140° |
| 2026-04-27 13:30 | 10.75570 | -15.96353 | 34991 ft | 479 kts | 140° |
| 2026-04-27 13:31 | 10.70577 | -15.91862 | 34987 ft | 479 kts | 140° |
| 2026-04-27 13:31 | 10.65604 | -15.87403 | 34984 ft | 478 kts | 140° |
| 2026-04-27 13:32 | 10.60605 | -15.82926 | 34985 ft | 478 kts | 140° |
| 2026-04-27 13:32 | 10.55609 | -15.78450 | 34985 ft | 478 kts | 140° |
| 2026-04-27 13:33 | 10.50617 | -15.73972 | 34983 ft | 478 kts | 140° |
| 2026-04-27 13:33 | 10.45620 | -15.69497 | 34985 ft | 478 kts | 140° |
| 2026-04-27 13:34 | 10.41472 | -15.65785 | 34987 ft | 478 kts | 140° |
| 2026-04-27 13:34 | 10.35653 | -15.60598 | 34981 ft | 479 kts | 140° |
| 2026-04-27 13:35 | 10.31479 | -15.56829 | 34981 ft | 479 kts | 139° |
| 2026-04-27 13:35 | 10.26583 | -15.52298 | 34981 ft | 479 kts | 139° |
| 2026-04-27 13:36 | 10.21666 | -15.47730 | 34975 ft | 479 kts | 139° |
| 2026-04-27 13:36 | 10.16730 | -15.43187 | 34984 ft | 479 kts | 139° |
| 2026-04-27 13:37 | 10.11794 | -15.38658 | 34989 ft | 478 kts | 139° |
| 2026-04-27 13:37 | 10.06861 | -15.34129 | 34986 ft | 478 kts | 139° |
| 2026-04-27 13:38 | 10.01924 | -15.29597 | 34984 ft | 478 kts | 139° |
| 2026-04-27 13:38 | 9.96986 | -15.25070 | 34985 ft | 478 kts | 139° |
| 2026-04-27 13:39 | 9.92041 | -15.20529 | 34986 ft | 478 kts | 139° |
| 2026-04-27 13:39 | 9.87105 | -15.15995 | 34985 ft | 478 kts | 139° |
| 2026-04-27 13:40 | 9.82198 | -15.11505 | 34985 ft | 478 kts | 139° |
| 2026-04-27 13:40 | 9.77267 | -15.06993 | 34990 ft | 477 kts | 139° |
| 2026-04-27 13:41 | 9.72335 | -15.02476 | 34985 ft | 477 kts | 139° |
| 2026-04-27 13:41 | 9.67403 | -14.97952 | 34985 ft | 477 kts | 139° |
| 2026-04-27 13:42 | 9.62481 | -14.93447 | 34989 ft | 477 kts | 139° |
| 2026-04-27 13:42 | 9.57554 | -14.88943 | 34978 ft | 477 kts | 139° |
| 2026-04-27 13:43 | 9.52653 | -14.84460 | 34978 ft | 477 kts | 139° |
| 2026-04-27 13:43 | 9.47712 | -14.79952 | 34983 ft | 477 kts | 139° |
| 2026-04-27 13:44 | 9.42771 | -14.75445 | 34981 ft | 477 kts | 139° |
| 2026-04-27 13:44 | 9.37869 | -14.70964 | 34982 ft | 477 kts | 139° |
| 2026-04-27 13:45 | 9.32932 | -14.66466 | 34984 ft | 477 kts | 140° |
| 2026-04-27 13:45 | 9.27924 | -14.62048 | 34983 ft | 477 kts | 140° |
| 2026-04-27 13:46 | 9.22876 | -14.57669 | 34985 ft | 477 kts | 140° |
| 2026-04-27 13:46 | 9.17848 | -14.53285 | 34983 ft | 477 kts | 140° |
| 2026-04-27 13:47 | 9.12867 | -14.48918 | 34983 ft | 476 kts | 140° |
| 2026-04-27 13:47 | 9.07861 | -14.44517 | 34983 ft | 476 kts | 140° |
| 2026-04-27 13:48 | 9.02860 | -14.40124 | 34982 ft | 475 kts | 140° |
| 2026-04-27 13:48 | 8.97863 | -14.35739 | 34979 ft | 475 kts | 140° |
| 2026-04-27 13:49 | 8.92869 | -14.31362 | 34980 ft | 475 kts | 140° |
| 2026-04-27 13:49 | 8.87903 | -14.27015 | 34980 ft | 475 kts | 140° |
| 2026-04-27 13:50 | 8.82894 | -14.22641 | 34979 ft | 475 kts | 140° |
| 2026-04-27 13:50 | 8.77893 | -14.18261 | 34980 ft | 475 kts | 140° |
| 2026-04-27 13:51 | 8.72895 | -14.13880 | 34974 ft | 475 kts | 140° |
| 2026-04-27 13:51 | 8.67920 | -14.09523 | 34975 ft | 475 kts | 140° |
| 2026-04-27 13:52 | 8.62916 | -14.05146 | 34974 ft | 475 kts | 140° |
| 2026-04-27 13:52 | 8.57910 | -14.00776 | 34973 ft | 475 kts | 140° |
| 2026-04-27 13:53 | 8.50399 | -13.94219 | 34973 ft | 475 kts | 140° |
| 2026-04-27 13:54 | 8.45397 | -13.89848 | 34969 ft | 475 kts | 140° |
| 2026-04-27 13:54 | 8.40428 | -13.85515 | 34969 ft | 475 kts | 140° |
| 2026-04-27 13:55 | 8.35421 | -13.81151 | 34965 ft | 475 kts | 140° |
| 2026-04-27 13:55 | 8.30421 | -13.76778 | 34960 ft | 475 kts | 140° |
| 2026-04-27 13:56 | 8.25423 | -13.72407 | 34956 ft | 475 kts | 140° |
| 2026-04-27 13:56 | 8.20413 | -13.68043 | 34954 ft | 475 kts | 140° |
| 2026-04-27 13:57 | 8.15407 | -13.63678 | 34947 ft | 475 kts | 138° |
| 2026-04-27 13:57 | 8.10792 | -13.58899 | 34951 ft | 476 kts | 134° |
| 2026-04-27 13:58 | 8.06216 | -13.54072 | 34956 ft | 475 kts | 134° |
| 2026-04-27 13:58 | 8.01647 | -13.49251 | 34949 ft | 475 kts | 134° |
| 2026-04-27 13:59 | 7.97072 | -13.44434 | 34945 ft | 475 kts | 134° |
| 2026-04-27 13:59 | 7.92529 | -13.39648 | 34944 ft | 475 kts | 134° |
| 2026-04-27 14:00 | 7.87967 | -13.34829 | 34942 ft | 475 kts | 134° |
| 2026-04-27 14:00 | 7.83398 | -13.30018 | 34944 ft | 475 kts | 134° |
| 2026-04-27 14:01 | 7.78827 | -13.25208 | 34942 ft | 475 kts | 134° |
| 2026-04-27 14:01 | 7.74257 | -13.20398 | 34935 ft | 475 kts | 134° |
| 2026-04-27 14:02 | 7.69691 | -13.15587 | 34934 ft | 475 kts | 134° |
| 2026-04-27 14:02 | 7.65128 | -13.10781 | 34939 ft | 474 kts | 134° |
| 2026-04-27 14:03 | 7.60559 | -13.05977 | 34931 ft | 474 kts | 134° |
| 2026-04-27 14:03 | 7.55996 | -13.01184 | 34940 ft | 474 kts | 134° |
| 2026-04-27 14:04 | 7.51435 | -12.96393 | 34928 ft | 474 kts | 134° |
| 2026-04-27 14:04 | 7.46873 | -12.91602 | 34210 ft | 474 kts | 134° |
| 2026-04-27 14:04 | 7.44582 | -12.89196 | 33353 ft | 477 kts | 134° |
| 2026-04-27 14:05 | 7.42280 | -12.86779 | 32573 ft | 478 kts | 134° |
| 2026-04-27 14:05 | 7.39975 | -12.84360 | 31848 ft | 477 kts | 134° |
| 2026-04-27 14:05 | 7.37682 | -12.81953 | 31120 ft | 476 kts | 134° |
| 2026-04-27 14:05 | 7.35391 | -12.79547 | 30370 ft | 475 kts | 134° |
| 2026-04-27 14:06 | 7.33099 | -12.77143 | 29512 ft | 476 kts | 134° |
| 2026-04-27 14:06 | 7.30804 | -12.74739 | 28536 ft | 477 kts | 134° |
| 2026-04-27 14:06 | 7.28521 | -12.72349 | 27514 ft | 479 kts | 134° |
| 2026-04-27 14:06 | 7.26205 | -12.69921 | 26480 ft | 482 kts | 135° |
| 2026-04-27 14:07 | 7.23874 | -12.67475 | 25588 ft | 485 kts | 134° |
| 2026-04-27 14:07 | 7.21531 | -12.65013 | 25195 ft | 488 kts | 135° |
| 2026-04-27 14:07 | 7.19179 | -12.62545 | 24915 ft | 487 kts | 135° |
| 2026-04-27 14:07 | 7.16837 | -12.60086 | 23941 ft | 487 kts | 135° |
| 2026-04-27 14:08 | 7.14490 | -12.57622 | 23040 ft | 486 kts | 134° |
| 2026-04-27 14:08 | 7.12167 | -12.55185 | 22245 ft | 479 kts | 134° |
| 2026-04-27 14:08 | 7.09872 | -12.52781 | 21502 ft | 473 kts | 134° |
| 2026-04-27 14:08 | 7.07603 | -12.50402 | 20798 ft | 467 kts | 134° |
| 2026-04-27 14:09 | 7.05364 | -12.48058 | 20115 ft | 462 kts | 134° |
| 2026-04-27 14:09 | 7.03149 | -12.45743 | 19461 ft | 456 kts | 134° |
| 2026-04-27 14:09 | 7.00961 | -12.43452 | 18828 ft | 451 kts | 133° |
| 2026-04-27 14:09 | 6.98805 | -12.41194 | 18232 ft | 445 kts | 133° |
| 2026-04-27 14:10 | 6.96668 | -12.38957 | 17525 ft | 440 kts | 133° |
| 2026-04-27 14:10 | 6.94563 | -12.36756 | 16903 ft | 434 kts | 133° |
| 2026-04-27 14:10 | 6.92482 | -12.34580 | 16238 ft | 429 kts | 133° |
| 2026-04-27 14:10 | 6.90426 | -12.32431 | 15625 ft | 424 kts | 132° |
| 2026-04-27 14:11 | 6.88391 | -12.30297 | 15121 ft | 420 kts | 132° |
| 2026-04-27 14:11 | 6.86377 | -12.28184 | 14928 ft | 418 kts | 132° |
| 2026-04-27 14:11 | 6.84359 | -12.26075 | 14925 ft | 418 kts | 132° |
| 2026-04-27 14:11 | 6.82335 | -12.23959 | 14931 ft | 418 kts | 132° |
| 2026-04-27 14:12 | 6.80347 | -12.21882 | 14930 ft | 418 kts | 132° |
| 2026-04-27 14:12 | 6.78325 | -12.19769 | 14929 ft | 418 kts | 132° |
| 2026-04-27 14:12 | 6.76311 | -12.17661 | 14925 ft | 418 kts | 132° |
| 2026-04-27 14:12 | 6.74303 | -12.15565 | 14520 ft | 412 kts | 132° |
| 2026-04-27 14:13 | 6.72325 | -12.13500 | 13912 ft | 408 kts | 131° |
| 2026-04-27 14:13 | 6.70366 | -12.11456 | 13275 ft | 403 kts | 131° |
| 2026-04-27 14:13 | 6.68421 | -12.09421 | 12989 ft | 403 kts | 131° |
| 2026-04-27 14:13 | 6.66472 | -12.07380 | 12909 ft | 404 kts | 131° |
| 2026-04-27 14:14 | 6.64523 | -12.05338 | 12930 ft | 406 kts | 131° |
| 2026-04-27 14:14 | 6.62570 | -12.03294 | 12930 ft | 406 kts | 131° |
| 2026-04-27 14:14 | 6.60608 | -12.01243 | 12926 ft | 406 kts | 131° |
| 2026-04-27 14:14 | 6.58649 | -11.99196 | 12927 ft | 406 kts | 131° |
| 2026-04-27 14:15 | 6.56692 | -11.97152 | 12925 ft | 406 kts | 131° |
| 2026-04-27 14:15 | 6.54732 | -11.95103 | 12929 ft | 406 kts | 131° |
| 2026-04-27 14:15 | 6.52773 | -11.93059 | 12929 ft | 406 kts | 132° |
| 2026-04-27 14:15 | 6.50809 | -11.91015 | 12924 ft | 406 kts | 132° |
| 2026-04-27 14:16 | 6.48845 | -11.88975 | 12928 ft | 406 kts | 132° |
| 2026-04-27 14:16 | 6.46883 | -11.86932 | 12923 ft | 406 kts | 131° |
| 2026-04-27 14:16 | 6.44916 | -11.84880 | 12928 ft | 406 kts | 131° |
| 2026-04-27 14:16 | 6.42986 | -11.82862 | 12933 ft | 406 kts | 131° |
| 2026-04-27 14:17 | 6.41027 | -11.80813 | 12922 ft | 406 kts | 131° |
| 2026-04-27 14:17 | 6.39063 | -11.78757 | 12924 ft | 406 kts | 131° |
| 2026-04-27 14:17 | 6.37102 | -11.76709 | 12929 ft | 406 kts | 131° |
| 2026-04-27 14:17 | 6.35142 | -11.74663 | 12926 ft | 406 kts | 131° |
| 2026-04-27 14:18 | 6.33182 | -11.72623 | 12793 ft | 403 kts | 132° |
| 2026-04-27 14:18 | 6.31242 | -11.70608 | 12059 ft | 400 kts | 132° |
| 2026-04-27 14:18 | 6.29316 | -11.68605 | 11364 ft | 397 kts | 132° |
| 2026-04-27 14:18 | 6.27410 | -11.66617 | 10694 ft | 394 kts | 132° |
| 2026-04-27 14:19 | 6.26155 | -11.65305 | 10281 ft | 392 kts | 132° |
| 2026-04-27 14:19 | 6.24270 | -11.63332 | 10014 ft | 391 kts | 132° |
| 2026-04-27 14:19 | 6.22396 | -11.61374 | 9902 ft | 379 kts | 132° |
| 2026-04-27 14:19 | 6.20619 | -11.59525 | 9918 ft | 357 kts | 132° |
| 2026-04-27 14:20 | 6.18942 | -11.57783 | 9924 ft | 337 kts | 132° |
| 2026-04-27 14:20 | 6.17358 | -11.56138 | 9920 ft | 319 kts | 132° |
| 2026-04-27 14:20 | 6.15852 | -11.54572 | 9917 ft | 303 kts | 132° |
| 2026-04-27 14:20 | 6.14425 | -11.53088 | 9921 ft | 291 kts | 132° |
| 2026-04-27 14:21 | 6.13028 | -11.51634 | 9920 ft | 288 kts | 131° |
| 2026-04-27 14:21 | 6.11649 | -11.50195 | 9659 ft | 285 kts | 131° |
| 2026-04-27 14:21 | 6.10274 | -11.48760 | 9282 ft | 284 kts | 132° |
| 2026-04-27 14:21 | 6.08908 | -11.47336 | 8895 ft | 283 kts | 132° |
| 2026-04-27 14:22 | 6.07548 | -11.45917 | 8526 ft | 281 kts | 132° |
| 2026-04-27 14:22 | 6.06210 | -11.44522 | 8159 ft | 280 kts | 132° |
| 2026-04-27 14:22 | 6.04860 | -11.43114 | 7925 ft | 279 kts | 132° |
| 2026-04-27 14:22 | 6.03509 | -11.41712 | 7919 ft | 280 kts | 132° |
| 2026-04-27 14:23 | 6.02153 | -11.40304 | 7924 ft | 281 kts | 132° |
| 2026-04-27 14:23 | 6.00794 | -11.38892 | 7923 ft | 281 kts | 132° |
| 2026-04-27 14:23 | 5.99438 | -11.37483 | 7923 ft | 281 kts | 132° |
| 2026-04-27 14:23 | 5.98076 | -11.36067 | 7923 ft | 281 kts | 132° |
| 2026-04-27 14:24 | 5.96720 | -11.34657 | 7925 ft | 281 kts | 132° |
| 2026-04-27 14:24 | 5.95361 | -11.33241 | 7926 ft | 281 kts | 132° |
| 2026-04-27 14:24 | 5.94007 | -11.31827 | 7931 ft | 281 kts | 132° |
| 2026-04-27 14:24 | 5.92652 | -11.30413 | 7920 ft | 281 kts | 132° |
| 2026-04-27 14:25 | 5.91297 | -11.29003 | 7924 ft | 280 kts | 132° |
| 2026-04-27 14:25 | 5.89940 | -11.27592 | 7923 ft | 280 kts | 132° |
| 2026-04-27 14:25 | 5.88580 | -11.26179 | 7923 ft | 280 kts | 132° |
| 2026-04-27 14:25 | 5.87242 | -11.24788 | 7923 ft | 280 kts | 132° |
| 2026-04-27 14:26 | 5.85885 | -11.23380 | 7924 ft | 280 kts | 132° |
| 2026-04-27 14:26 | 5.84529 | -11.21972 | 7923 ft | 280 kts | 132° |
| 2026-04-27 14:26 | 5.83173 | -11.20562 | 7923 ft | 280 kts | 132° |
| 2026-04-27 14:26 | 5.81816 | -11.19151 | 7926 ft | 280 kts | 132° |
| 2026-04-27 14:27 | 5.80460 | -11.17741 | 7926 ft | 280 kts | 132° |
| 2026-04-27 14:27 | 5.79106 | -11.16330 | 7893 ft | 280 kts | 132° |
| 2026-04-27 14:27 | 5.77762 | -11.14930 | 7522 ft | 278 kts | 132° |
| 2026-04-27 14:27 | 5.76419 | -11.13535 | 7149 ft | 277 kts | 132° |
| 2026-04-27 14:28 | 5.75084 | -11.12149 | 6772 ft | 276 kts | 132° |
| 2026-04-27 14:28 | 5.73763 | -11.10778 | 6402 ft | 275 kts | 132° |
| 2026-04-27 14:28 | 5.72442 | -11.09404 | 6023 ft | 274 kts | 133° |
| 2026-04-27 14:28 | 5.71119 | -11.08030 | 5913 ft | 273 kts | 133° |
| 2026-04-27 14:29 | 5.69817 | -11.06633 | 5918 ft | 274 kts | 128° |
| 2026-04-27 14:29 | 5.68718 | -11.05067 | 5920 ft | 274 kts | 119° |
| 2026-04-27 14:29 | 5.67884 | -11.03356 | 5926 ft | 272 kts | 110° |
| 2026-04-27 14:29 | 5.67332 | -11.01547 | 5923 ft | 272 kts | 101° |
| 2026-04-27 14:30 | 5.67069 | -10.99664 | 5921 ft | 271 kts | 92° |
| 2026-04-27 14:30 | 5.67101 | -10.97771 | 5922 ft | 271 kts | 84° |
| 2026-04-27 14:30 | 5.67428 | -10.95908 | 5923 ft | 271 kts | 75° |
| 2026-04-27 14:30 | 5.68037 | -10.94117 | 5923 ft | 271 kts | 68° |
| 2026-04-27 14:31 | 5.68750 | -10.92359 | 5920 ft | 271 kts | 68° |
| 2026-04-27 14:31 | 5.69453 | -10.90611 | 5716 ft | 268 kts | 68° |
| 2026-04-27 14:31 | 5.70150 | -10.88873 | 5312 ft | 267 kts | 68° |
| 2026-04-27 14:31 | 5.70842 | -10.87148 | 4918 ft | 266 kts | 68° |
| 2026-04-27 14:32 | 5.71531 | -10.85430 | 4512 ft | 265 kts | 68° |
| 2026-04-27 14:32 | 5.72218 | -10.83720 | 4111 ft | 264 kts | 68° |
| 2026-04-27 14:32 | 5.72901 | -10.82017 | 3919 ft | 263 kts | 68° |
| 2026-04-27 14:32 | 5.73586 | -10.80305 | 3914 ft | 265 kts | 68° |
| 2026-04-27 14:33 | 5.74290 | -10.78619 | 3918 ft | 264 kts | 62° |
| 2026-04-27 14:33 | 5.75406 | -10.77180 | 3621 ft | 261 kts | 45° |
| 2026-04-27 14:33 | 5.76699 | -10.75901 | 3197 ft | 261 kts | 44° |
| 2026-04-27 14:33 | 5.78004 | -10.74631 | 2781 ft | 261 kts | 43° |
| 2026-04-27 14:34 | 5.79308 | -10.73363 | 2371 ft | 261 kts | 43° |
| 2026-04-27 14:34 | 5.80612 | -10.72090 | 1982 ft | 260 kts | 43° |
| 2026-04-27 14:34 | 5.81909 | -10.70822 | 1913 ft | 261 kts | 43° |
| 2026-04-27 14:34 | 5.83217 | -10.69543 | 1913 ft | 262 kts | 43° |
| 2026-04-27 14:35 | 5.84525 | -10.68260 | 1908 ft | 262 kts | 44° |
| 2026-04-27 14:35 | 5.85830 | -10.66977 | 1907 ft | 262 kts | 44° |
| 2026-04-27 14:35 | 5.87134 | -10.65696 | 1908 ft | 263 kts | 44° |
| 2026-04-27 14:35 | 5.88434 | -10.64419 | 1617 ft | 261 kts | 43° |
| 2026-04-27 14:36 | 5.89720 | -10.63158 | 1163 ft | 261 kts | 44° |
| 2026-04-27 14:36 | 5.91012 | -10.61891 | 934 ft | 259 kts | 43° |
| 2026-04-27 14:36 | 5.92301 | -10.60626 | 911 ft | 260 kts | 43° |
| 2026-04-27 14:36 | 5.93605 | -10.59347 | 912 ft | 261 kts | 44° |
| 2026-04-27 14:37 | 5.94906 | -10.58073 | 916 ft | 263 kts | 43° |
| 2026-04-27 14:37 | 5.96214 | -10.56792 | 921 ft | 262 kts | 44° |
| 2026-04-27 14:37 | 5.97476 | -10.55551 | 912 ft | 245 kts | 43° |
| 2026-04-27 14:37 | 5.98661 | -10.54385 | 914 ft | 235 kts | 42° |
| 2026-04-27 14:38 | 5.99835 | -10.53232 | 917 ft | 236 kts | 44° |
| 2026-04-27 14:38 | 6.01011 | -10.52076 | 921 ft | 235 kts | 44° |
| 2026-04-27 14:38 | 6.02154 | -10.50955 | 926 ft | 223 kts | 43° |
| 2026-04-27 14:38 | 6.03248 | -10.49882 | 925 ft | 218 kts | 43° |
| 2026-04-27 14:39 | 6.04310 | -10.48839 | 914 ft | 209 kts | 44° |
| 2026-04-27 14:39 | 6.05300 | -10.47867 | 909 ft | 195 kts | 44° |
| 2026-04-27 14:39 | 6.06238 | -10.46945 | 912 ft | 184 kts | 44° |
| 2026-04-27 14:39 | 6.07150 | -10.46063 | 904 ft | 181 kts | 39° |
| 2026-04-27 14:40 | 6.08200 | -10.45377 | 912 ft | 180 kts | 30° |
| 2026-04-27 14:40 | 6.09275 | -10.44733 | 912 ft | 179 kts | 30° |
| 2026-04-27 14:40 | 6.10349 | -10.44086 | 918 ft | 179 kts | 30° |
| 2026-04-27 14:40 | 6.11416 | -10.43443 | 923 ft | 180 kts | 29° |
| 2026-04-27 14:41 | 6.12497 | -10.42792 | 922 ft | 182 kts | 31° |
| 2026-04-27 14:41 | 6.13579 | -10.42140 | 915 ft | 179 kts | 29° |
| 2026-04-27 14:41 | 6.14644 | -10.41498 | 905 ft | 179 kts | 31° |
| 2026-04-27 14:41 | 6.15710 | -10.40856 | 925 ft | 178 kts | 31° |
| 2026-04-27 14:42 | 6.16769 | -10.40217 | 923 ft | 176 kts | 30° |
| 2026-04-27 14:42 | 6.17808 | -10.39591 | 928 ft | 176 kts | 31° |
| 2026-04-27 14:42 | 6.18852 | -10.38961 | 778 ft | 175 kts | 30° |
| 2026-04-27 14:42 | 6.19895 | -10.38331 | 565 ft | 175 kts | 27° |
| 2026-04-27 14:43 | 6.20931 | -10.37708 | 335 ft | 174 kts | 26° |
| 2026-04-27 14:43 | 6.21954 | -10.37091 | 114 ft | 170 kts | 28° |
| 2026-04-27 14:43 | 6.22891 | -10.36536 | 35 ft | 125 kts | 30° |
| 2026-04-27 14:43 | 6.23385 | -10.36237 | 32 ft | 53 kts | 30° |
| 2026-04-27 14:44 | 6.23621 | -10.36045 | 33 ft | 31 kts | 60° |
| 2026-04-27 14:44 | 6.23699 | -10.35883 | 33 ft | 21 kts | 87° |
| 2026-04-27 14:44 | 6.23742 | -10.35760 | 33 ft | 18 kts | 60° |
| 2026-04-27 14:44 | 6.23802 | -10.35658 | 33 ft | 16 kts | 58° |
| 2026-04-27 14:45 | 6.23859 | -10.35566 | 33 ft | 15 kts | 58° |
| 2026-04-27 14:45 | 6.23930 | -10.35501 | 33 ft | 13 kts | 32° |
| 2026-04-27 14:45 | 6.24002 | -10.35455 | 33 ft | 12 kts | 32° |
| 2026-04-27 14:45 | 6.24070 | -10.35413 | 33 ft | 11 kts | 32° |
| 2026-04-27 14:46 | 6.24135 | -10.35384 | 32 ft | 10 kts | 9° |
| 2026-04-27 14:46 | 6.24141 | -10.35383 | 32 ft | 0 kts | 9° |